createdAt,value
2022-11-07T00:01:18.878Z,60.31
2022-11-07T00:03:45.572Z,60.59
2022-11-07T00:06:13.538Z,60.68
2022-11-07T00:08:39.999Z,60.57
2022-11-07T00:11:06.779Z,60.28
2022-11-07T00:13:33.796Z,60.41
2022-11-07T00:16:01.908Z,60.54
2022-11-07T00:18:28.504Z,60.41
2022-11-07T00:20:54.980Z,60.42
2022-11-07T00:23:21.585Z,60.52
2022-11-07T00:25:48.647Z,60.83
2022-11-07T00:28:15.250Z,60.84
2022-11-07T00:30:41.729Z,60.64
2022-11-07T00:33:08.189Z,60.57
2022-11-07T00:35:40.834Z,60.67
2022-11-07T00:38:07.280Z,60.73
2022-11-07T00:40:33.775Z,60.69
2022-11-07T00:43:00.236Z,60.57
2022-11-07T00:45:30.850Z,60.59
2022-11-07T00:47:57.344Z,60.39
2022-11-07T00:50:23.895Z,60.55
2022-11-07T00:52:50.376Z,60.42
2022-11-07T00:55:16.956Z,60.77
2022-11-07T00:57:43.448Z,60.45
2022-11-07T01:00:10.689Z,60.69
2022-11-07T01:02:37.267Z,60.31
2022-11-07T01:05:13.092Z,60.56
2022-11-07T01:07:40.863Z,60.29
2022-11-07T01:10:08.790Z,60.46
2022-11-07T01:12:36.243Z,60.75
2022-11-07T01:15:04.755Z,60.37
2022-11-07T01:17:31.228Z,60.88
2022-11-07T01:19:57.710Z,60.84
2022-11-07T01:22:24.243Z,60.58
2022-11-07T01:24:52.458Z,60.51
2022-11-07T01:27:18.953Z,60.69
2022-11-07T01:29:45.412Z,60.74
2022-11-07T01:32:11.898Z,60.73
2022-11-07T01:34:41.698Z,60.53
2022-11-07T01:37:08.209Z,60.51
2022-11-07T01:39:34.674Z,60.75
2022-11-07T01:42:01.217Z,60.54
2022-11-07T01:44:29.270Z,60.90
2022-11-07T01:46:59.171Z,60.96
2022-11-07T01:49:37.675Z,60.89
2022-11-07T01:52:09.827Z,61.05
2022-11-07T01:54:43.929Z,60.96
2022-11-07T01:57:20.832Z,60.68
2022-11-07T01:59:48.172Z,60.76
2022-11-07T02:02:15.385Z,61.05
2022-11-07T02:04:46.226Z,60.74
2022-11-07T02:07:21.087Z,61.11
2022-11-07T02:09:48.612Z,60.86
2022-11-07T02:12:15.992Z,61.14
2022-11-07T02:14:43.837Z,61.13
2022-11-07T02:17:14.669Z,61.28
2022-11-07T02:19:49.887Z,61.42
2022-11-07T02:22:36.506Z,61.26
2022-11-07T02:25:08.352Z,61.25
2022-11-07T02:27:35.004Z,61.16
2022-11-07T02:30:23.665Z,61.53
2022-11-07T02:32:50.514Z,61.20
2022-11-07T02:35:38.747Z,61.22
2022-11-07T02:38:21.219Z,61.08
2022-11-07T02:41:00.882Z,61.14
2022-11-07T02:43:30.097Z,61.49
2022-11-07T02:46:00.407Z,61.15
2022-11-07T02:48:32.031Z,61.08
2022-11-07T02:50:59.258Z,61.21
2022-11-07T02:53:26.743Z,61.28
2022-11-07T02:55:53.281Z,61.42
2022-11-07T02:58:19.750Z,61.46
2022-11-07T03:00:46.295Z,61.39
2022-11-07T03:03:13.850Z,61.61
2022-11-07T03:05:41.625Z,61.49
2022-11-07T03:08:08.314Z,61.16
2022-11-07T03:10:34.925Z,61.45
2022-11-07T03:13:02.058Z,61.39
2022-11-07T03:15:31.581Z,61.72
2022-11-07T03:17:59.456Z,61.23
2022-11-07T03:20:25.960Z,61.62
2022-11-07T03:22:52.704Z,61.20
2022-11-07T03:25:22.290Z,61.18
2022-11-07T03:27:50.134Z,61.35
2022-11-07T03:30:17.266Z,61.64
2022-11-07T03:32:44.006Z,61.64
2022-11-07T03:35:10.740Z,61.37
2022-11-07T03:37:37.284Z,61.48
2022-11-07T03:40:04.258Z,61.47
2022-11-07T03:42:30.824Z,61.63
2022-11-07T03:44:58.277Z,61.69
2022-11-07T03:47:24.827Z,61.45
2022-11-07T03:49:51.273Z,61.82
2022-11-07T03:52:17.740Z,61.30
2022-11-07T03:54:48.161Z,61.52
2022-11-07T03:57:14.713Z,61.43
2022-11-07T03:59:41.253Z,61.47
2022-11-07T04:02:08.048Z,61.66
2022-11-07T04:04:36.261Z,61.48
2022-11-07T04:07:02.913Z,62.04
2022-11-07T04:09:29.422Z,61.82
2022-11-07T04:12:14.483Z,61.86
2022-11-07T04:14:59.570Z,62.17
2022-11-07T04:17:28.021Z,62.02
2022-11-07T04:19:56.074Z,61.94
2022-11-07T04:22:24.858Z,61.98
2022-11-07T04:24:52.680Z,62.26
2022-11-07T04:27:38.645Z,62.02
2022-11-07T04:30:19.754Z,61.92
2022-11-07T04:32:53.777Z,62.04
2022-11-07T04:35:23.777Z,62.08
2022-11-07T04:37:50.595Z,62.19
2022-11-07T04:40:18.358Z,61.97
2022-11-07T04:42:45.880Z,62.24
2022-11-07T04:45:13.884Z,62.11
2022-11-07T04:47:40.972Z,62.11
2022-11-07T04:50:10.036Z,61.74
2022-11-07T04:52:36.680Z,61.60
2022-11-07T04:55:08.444Z,61.93
2022-11-07T04:57:35.012Z,61.77
2022-11-07T05:00:02.508Z,61.49
2022-11-07T05:02:29.125Z,61.81
2022-11-07T05:04:55.685Z,61.62
2022-11-07T05:07:22.184Z,61.44
2022-11-07T05:09:48.775Z,61.52
2022-11-07T05:12:15.240Z,61.56
2022-11-07T05:14:42.804Z,61.76
2022-11-07T05:17:15.025Z,61.60
2022-11-07T05:19:43.454Z,61.52
2022-11-07T05:22:29.720Z,61.92
2022-11-07T05:25:00.522Z,61.57
2022-11-07T05:27:26.982Z,61.84
2022-11-07T05:29:53.463Z,61.83
2022-11-07T05:32:19.995Z,61.82
2022-11-07T05:34:50.724Z,61.99
2022-11-07T05:37:17.198Z,61.75
2022-11-07T05:39:43.644Z,62.05
2022-11-07T05:42:10.102Z,61.86
2022-11-07T05:44:39.427Z,62.15
2022-11-07T05:47:05.904Z,61.73
2022-11-07T05:49:32.352Z,61.66
2022-11-07T05:51:58.855Z,62.00
2022-11-07T05:54:30.321Z,61.59
2022-11-07T05:56:57.624Z,61.64
2022-11-07T05:59:24.207Z,62.09
2022-11-07T06:01:52.380Z,61.96
2022-11-07T06:04:23.118Z,61.80
2022-11-07T06:06:49.687Z,61.96
2022-11-07T06:09:16.177Z,61.85
2022-11-07T06:11:42.707Z,61.54
2022-11-07T06:14:16.664Z,61.82
2022-11-07T06:16:43.205Z,61.71
2022-11-07T06:19:09.785Z,61.75
2022-11-07T06:21:36.316Z,61.84
2022-11-07T06:24:03.556Z,61.62
2022-11-07T06:26:30.123Z,61.80
2022-11-07T06:28:56.583Z,61.45
2022-11-07T06:31:23.134Z,61.68
2022-11-07T06:33:54.476Z,61.63
2022-11-07T06:36:21.032Z,61.52
2022-11-07T06:38:53.119Z,61.65
2022-11-07T06:41:19.628Z,61.63
2022-11-07T06:43:46.215Z,61.25
2022-11-07T06:46:14.300Z,61.49
2022-11-07T06:48:43.556Z,61.53
2022-11-07T06:51:11.050Z,61.46
2022-11-07T06:53:38.592Z,61.49
2022-11-07T06:56:07.696Z,61.41
2022-11-07T06:58:34.729Z,61.59
2022-11-07T07:01:03.132Z,61.66
2022-11-07T07:03:30.413Z,61.23
2022-11-07T07:06:04.413Z,61.25
2022-11-07T07:08:32.024Z,61.49
2022-11-07T07:11:02.814Z,61.69
2022-11-07T07:13:29.922Z,61.16
2022-11-07T07:15:58.202Z,61.22
2022-11-07T07:18:25.672Z,61.52
2022-11-07T07:21:12.459Z,61.58
2022-11-07T07:23:39.244Z,61.45
2022-11-07T07:26:10.034Z,61.67
2022-11-07T07:28:37.307Z,61.62
2022-11-07T07:31:22.349Z,61.45
2022-11-07T07:33:49.128Z,61.49
2022-11-07T07:36:20.805Z,61.59
2022-11-07T07:38:48.392Z,61.51
2022-11-07T07:41:15.030Z,61.34
2022-11-07T07:43:41.602Z,61.35
2022-11-07T07:46:08.616Z,61.20
2022-11-07T07:48:35.636Z,61.10
2022-11-07T07:51:02.364Z,61.15
2022-11-07T07:53:28.912Z,61.29
2022-11-07T07:55:57.813Z,61.21
2022-11-07T07:58:25.742Z,61.52
2022-11-07T08:00:58.685Z,61.00
2022-11-07T08:03:29.316Z,61.39
2022-11-07T08:06:02.281Z,61.14
2022-11-07T08:08:31.489Z,61.30
2022-11-07T08:11:07.870Z,61.46
2022-11-07T08:13:34.609Z,61.28
2022-11-07T08:16:05.118Z,61.13
2022-11-07T08:18:31.636Z,61.42
2022-11-07T08:20:58.297Z,61.47
2022-11-07T08:23:25.016Z,61.25
2022-11-07T08:26:00.208Z,61.32
2022-11-07T08:28:29.265Z,61.43
2022-11-07T08:31:04.493Z,61.32
2022-11-07T08:33:31.487Z,61.43
2022-11-07T08:36:02.581Z,61.39
2022-11-07T08:38:30.806Z,61.22
2022-11-07T08:40:57.877Z,61.35
2022-11-07T08:43:24.809Z,61.12
2022-11-07T08:45:53.294Z,61.28
2022-11-07T08:48:19.920Z,61.17
2022-11-07T08:50:50.936Z,61.25
2022-11-07T08:53:17.838Z,60.94
2022-11-07T08:55:44.484Z,60.91
2022-11-07T08:58:11.036Z,60.85
2022-11-07T09:00:37.632Z,60.77
2022-11-07T09:03:38.772Z,61.09
2022-11-07T09:05:53.114Z,60.89
2022-11-07T09:08:19.662Z,61.00
2022-11-07T09:10:46.229Z,60.55
2022-11-07T09:13:15.048Z,60.56
2022-11-07T09:15:49.520Z,60.62
2022-11-07T09:18:17.392Z,60.08
2022-11-07T09:20:43.847Z,60.17
2022-11-07T09:23:10.437Z,60.00
2022-11-07T09:25:36.944Z,60.13
2022-11-07T09:28:04.156Z,60.06
2022-11-07T09:30:31.049Z,60.20
2022-11-07T09:32:57.628Z,59.88
2022-11-07T09:35:25.763Z,60.06
2022-11-07T09:37:52.534Z,59.99
2022-11-07T09:40:33.057Z,59.99
2022-11-07T09:43:28.454Z,59.73
2022-11-07T09:46:14.978Z,60.01
2022-11-07T09:48:46.243Z,59.88
2022-11-07T09:51:46.950Z,60.00
2022-11-07T09:54:24.815Z,59.91
2022-11-07T09:56:52.341Z,59.82
2022-11-07T09:59:32.596Z,60.11
2022-11-07T10:01:59.151Z,60.11
2022-11-07T10:04:27.380Z,59.75
2022-11-07T10:07:04.204Z,59.77
2022-11-07T10:09:46.385Z,59.78
2022-11-07T10:12:24.397Z,59.77
2022-11-07T10:15:18.474Z,59.97
2022-11-07T10:18:01.377Z,59.88
2022-11-07T10:20:49.148Z,60.22
2022-11-07T10:23:34.479Z,60.13
2022-11-07T10:26:09.189Z,59.98
2022-11-07T10:28:46.725Z,59.89
2022-11-07T10:31:14.795Z,59.90
2022-11-07T10:33:47.255Z,59.49
2022-11-07T10:36:28.816Z,59.67
2022-11-07T10:38:55.500Z,59.58
2022-11-07T10:41:27.594Z,59.43
2022-11-07T10:44:00.861Z,59.33
2022-11-07T10:46:33.696Z,59.58
2022-11-07T10:49:02.721Z,59.14
2022-11-07T10:51:40.792Z,59.24
2022-11-07T10:54:27.367Z,59.50
2022-11-07T10:57:07.040Z,59.33
2022-11-07T10:59:36.969Z,59.34
2022-11-07T11:02:19.504Z,59.51
2022-11-07T11:05:02.554Z,59.05
2022-11-07T11:07:40.424Z,59.22
2022-11-07T11:10:22.920Z,59.08
2022-11-07T11:12:49.959Z,59.25
2022-11-07T11:15:19.778Z,59.07
2022-11-07T11:17:47.562Z,59.29
2022-11-07T11:20:26.242Z,59.22
2022-11-07T11:22:53.743Z,58.90
2022-11-07T11:25:24.925Z,58.80
2022-11-07T11:28:03.369Z,58.87
2022-11-07T11:30:30.819Z,59.03
2022-11-07T11:33:03.557Z,58.93
2022-11-07T11:35:42.003Z,58.62
2022-11-07T11:38:17.778Z,58.71
2022-11-07T11:40:48.213Z,58.53
2022-11-07T11:43:23.832Z,58.40
2022-11-07T11:46:02.909Z,58.44
2022-11-07T11:48:45.105Z,58.39
2022-11-07T11:51:21.027Z,58.46
2022-11-07T11:53:47.733Z,58.16
2022-11-07T11:56:34.404Z,58.48
2022-11-07T11:59:23.902Z,58.54
2022-11-07T12:02:38.382Z,58.13
2022-11-07T12:05:47.723Z,58.50
2022-11-07T12:08:29.436Z,57.88
2022-11-07T12:11:34.410Z,58.02
2022-11-07T12:14:42.092Z,57.76
2022-11-07T12:17:24.259Z,57.44
2022-11-07T12:20:01.059Z,57.73
2022-11-07T12:22:39.450Z,57.54
2022-11-07T12:25:40.535Z,57.17
2022-11-07T12:28:12.741Z,57.27
2022-11-07T12:30:54.840Z,57.07
2022-11-07T12:34:00.917Z,57.42
2022-11-07T12:36:53.683Z,56.83
2022-11-07T12:39:30.576Z,56.80
2022-11-07T12:41:59.993Z,56.63
2022-11-07T12:44:41.839Z,56.83
2022-11-07T12:47:34.681Z,57.05
2022-11-07T12:50:38.841Z,56.78
2022-11-07T12:53:20.781Z,56.44
2022-11-07T12:55:56.401Z,56.54
2022-11-07T12:58:31.124Z,56.39
2022-11-07T13:00:58.684Z,56.72
2022-11-07T13:03:37.244Z,56.32
2022-11-07T13:06:06.488Z,56.28
2022-11-07T13:08:45.100Z,56.22
2022-11-07T13:11:25.877Z,56.33
2022-11-07T13:14:13.148Z,56.11
2022-11-07T13:16:50.286Z,55.85
2022-11-07T13:19:24.415Z,55.86
2022-11-07T13:22:02.361Z,55.45
2022-11-07T13:24:32.870Z,55.27
2022-11-07T13:27:00.039Z,55.21
2022-11-07T13:29:37.999Z,55.39
2022-11-07T13:32:09.137Z,55.50
2022-11-07T13:34:57.752Z,55.39
2022-11-07T13:37:30.893Z,55.19
2022-11-07T13:40:15.960Z,55.42
2022-11-07T13:42:44.807Z,55.56
2022-11-07T13:45:26.600Z,55.39
2022-11-07T13:47:57.922Z,55.55
2022-11-07T13:50:36.911Z,55.22
2022-11-07T13:53:12.661Z,55.55
2022-11-07T13:55:46.759Z,55.65
2022-11-07T13:58:16.452Z,55.22
2022-11-07T14:00:43.144Z,55.70
2022-11-07T14:03:42.424Z,55.37
2022-11-07T14:06:14.196Z,55.71
2022-11-07T14:08:44.756Z,55.76
2022-11-07T14:11:21.175Z,55.74
2022-11-07T14:13:51.691Z,55.70
2022-11-07T14:16:24.708Z,55.97
2022-11-07T14:19:07.584Z,56.05
2022-11-07T14:21:36.631Z,55.84
2022-11-07T14:24:04.395Z,55.97
2022-11-07T14:26:36.898Z,56.11
2022-11-07T14:29:05.383Z,55.92
2022-11-07T14:31:34.989Z,56.17
2022-11-07T14:34:24.933Z,56.16
2022-11-07T14:36:57.445Z,55.83
2022-11-07T14:39:26.896Z,55.78
2022-11-07T14:41:55.790Z,55.73
2022-11-07T14:44:54.016Z,55.73
2022-11-07T14:47:24.156Z,55.81
2022-11-07T14:49:52.406Z,55.87
2022-11-07T14:52:20.825Z,55.65
2022-11-07T14:55:08.505Z,55.65
2022-11-07T14:57:38.090Z,55.72
2022-11-07T15:00:14.761Z,55.88
2022-11-07T15:02:41.918Z,55.78
2022-11-07T15:05:25.171Z,55.83
2022-11-07T15:07:51.850Z,55.77
2022-11-07T15:10:26.225Z,55.59
2022-11-07T15:12:56.292Z,55.84
2022-11-07T15:15:28.883Z,56.13
2022-11-07T15:17:57.673Z,56.11
2022-11-07T15:20:35.399Z,56.00
2022-11-07T15:23:05.073Z,55.83
2022-11-07T15:25:40.616Z,55.98
2022-11-07T15:28:31.131Z,55.93
2022-11-07T15:30:59.828Z,56.09
2022-11-07T15:33:30.625Z,55.63
2022-11-07T15:36:01.041Z,55.73
2022-11-07T15:38:29.349Z,55.89
2022-11-07T15:40:56.341Z,55.74
2022-11-07T15:43:23.262Z,55.86
2022-11-07T15:45:53.212Z,55.74
2022-11-07T15:48:22.793Z,55.92
2022-11-07T15:50:49.985Z,56.09
2022-11-07T15:53:19.112Z,55.94
2022-11-07T15:55:46.618Z,56.28
2022-11-07T15:58:15.430Z,55.99
2022-11-07T16:00:42.607Z,55.94
2022-11-07T16:03:14.708Z,56.22
2022-11-07T16:05:42.294Z,56.23
2022-11-07T16:08:14.640Z,56.32
2022-11-07T16:10:47.712Z,56.26
2022-11-07T16:13:14.554Z,56.20
2022-11-07T16:15:45.657Z,56.23
2022-11-07T16:18:18.010Z,56.43
2022-11-07T16:20:45.355Z,56.39
2022-11-07T16:23:12.406Z,56.48
2022-11-07T16:25:42.404Z,56.11
2022-11-07T16:28:27.316Z,56.46
2022-11-07T16:30:55.946Z,56.27
2022-11-07T16:33:22.870Z,56.46
2022-11-07T16:36:00.274Z,56.26
2022-11-07T16:38:32.587Z,56.39
2022-11-07T16:41:01.373Z,56.64
2022-11-07T16:43:28.330Z,56.56
2022-11-07T16:45:59.962Z,56.32
2022-11-07T16:48:29.480Z,56.44
2022-11-07T16:50:56.723Z,56.46
2022-11-07T16:53:25.082Z,56.80
2022-11-07T16:55:55.093Z,56.46
2022-11-07T16:58:30.458Z,56.77
2022-11-07T17:00:59.711Z,56.60
2022-11-07T17:03:26.950Z,56.65
2022-11-07T17:05:55.984Z,56.45
2022-11-07T17:08:38.928Z,56.61
2022-11-07T17:11:06.126Z,56.63
2022-11-07T17:13:33.077Z,56.63
2022-11-07T17:16:01.165Z,56.73
2022-11-07T17:18:27.916Z,56.53
2022-11-07T17:20:55.825Z,56.64
2022-11-07T17:23:30.045Z,56.43
2022-11-07T17:26:02.416Z,56.63
2022-11-07T17:28:29.095Z,56.88
2022-11-07T17:30:55.638Z,56.72
2022-11-07T17:33:22.767Z,56.75
2022-11-07T17:35:55.648Z,56.78
2022-11-07T17:38:22.151Z,56.55
2022-11-07T17:40:48.659Z,56.84
2022-11-07T17:43:15.140Z,56.72
2022-11-07T17:45:45.170Z,56.88
2022-11-07T17:48:11.631Z,56.71
2022-11-07T17:50:38.338Z,56.72
2022-11-07T17:53:04.832Z,56.92
2022-11-07T17:55:31.369Z,56.86
2022-11-07T17:57:58.229Z,56.82
2022-11-07T18:00:27.101Z,56.59
2022-11-07T18:02:53.721Z,56.95
2022-11-07T18:05:22.647Z,57.00
2022-11-07T18:07:49.380Z,56.74
2022-11-07T18:10:16.680Z,56.82
2022-11-07T18:12:44.178Z,57.03
2022-11-07T18:15:15.225Z,56.59
2022-11-07T18:17:42.027Z,56.95
2022-11-07T18:20:09.878Z,56.57
2022-11-07T18:22:37.451Z,56.90
2022-11-07T18:25:08.617Z,56.82
2022-11-07T18:27:35.353Z,56.75
2022-11-07T18:30:02.962Z,56.76
2022-11-07T18:32:35.462Z,56.88
2022-11-07T18:35:04.552Z,56.70
2022-11-07T18:37:31.028Z,56.83
2022-11-07T18:39:57.505Z,57.06
2022-11-07T18:42:23.959Z,56.58
2022-11-07T18:44:52.036Z,56.97
2022-11-07T18:47:18.736Z,56.83
2022-11-07T18:49:45.197Z,56.95
2022-11-07T18:52:11.779Z,57.07
2022-11-07T18:54:42.322Z,56.75
2022-11-07T18:57:08.785Z,56.64
2022-11-07T18:59:35.223Z,56.67
2022-11-07T19:02:01.784Z,56.74
2022-11-07T19:04:33.903Z,57.22
2022-11-07T19:07:00.432Z,56.72
2022-11-07T19:09:32.310Z,56.82
2022-11-07T19:12:00.423Z,56.95
2022-11-07T19:14:29.729Z,56.98
2022-11-07T19:16:57.218Z,57.07
2022-11-07T19:19:23.799Z,57.03
2022-11-07T19:21:50.306Z,57.32
2022-11-07T19:24:18.643Z,57.34
2022-11-07T19:26:45.213Z,57.45
2022-11-07T19:29:11.761Z,57.36
2022-11-07T19:31:38.477Z,57.60
2022-11-07T19:34:05.950Z,57.76
2022-11-07T19:36:33.312Z,57.40
2022-11-07T19:39:00.004Z,58.01
2022-11-07T19:41:26.600Z,57.49
2022-11-07T19:43:53.189Z,57.79
2022-11-07T19:46:22.816Z,57.39
2022-11-07T19:48:50.556Z,57.69
2022-11-07T19:51:22.243Z,57.82
2022-11-07T19:53:57.562Z,57.49
2022-11-07T19:56:26.517Z,57.55
2022-11-07T19:58:54.419Z,57.59
2022-11-07T20:01:24.497Z,57.50
2022-11-07T20:03:52.547Z,57.42
2022-11-07T20:06:23.347Z,57.36
2022-11-07T20:08:50.991Z,57.74
2022-11-07T20:11:21.448Z,57.40
2022-11-07T20:13:48.126Z,57.82
2022-11-07T20:16:15.161Z,57.61
2022-11-07T20:18:41.999Z,57.74
2022-11-07T20:21:12.835Z,58.10
2022-11-07T20:23:40.764Z,57.68
2022-11-07T20:26:09.902Z,58.02
2022-11-07T20:28:36.702Z,57.82
2022-11-07T20:31:14.186Z,58.34
2022-11-07T20:33:40.996Z,58.38
2022-11-07T20:36:10.733Z,58.40
2022-11-07T20:38:37.255Z,58.29
2022-11-07T20:41:05.349Z,58.36
2022-11-07T20:43:33.764Z,58.43
2022-11-07T20:46:09.264Z,58.55
2022-11-07T20:48:36.904Z,58.35
2022-11-07T20:51:25.729Z,58.24
2022-11-07T20:53:53.663Z,58.09
2022-11-07T20:56:22.893Z,58.32
2022-11-07T20:58:50.324Z,58.18
2022-11-07T21:01:19.941Z,58.08
2022-11-07T21:03:47.459Z,58.39
2022-11-07T21:06:14.118Z,58.02
2022-11-07T21:08:42.845Z,58.49
2022-11-07T21:11:11.214Z,58.06
2022-11-07T21:13:38.180Z,58.56
2022-11-07T21:16:06.517Z,58.20
2022-11-07T21:18:33.124Z,58.54
2022-11-07T21:21:06.549Z,58.38
2022-11-07T21:23:33.060Z,58.14
2022-11-07T21:25:59.578Z,58.27
2022-11-07T21:28:26.505Z,58.42
2022-11-07T21:31:00.796Z,58.22
2022-11-07T21:33:27.321Z,58.35
2022-11-07T21:35:54.678Z,58.61
2022-11-07T21:38:23.030Z,58.61
2022-11-07T21:40:49.834Z,58.66
2022-11-07T21:43:16.567Z,58.37
2022-11-07T21:45:43.581Z,58.46
2022-11-07T21:48:10.446Z,58.69
2022-11-07T21:50:45.281Z,58.93
2022-11-07T21:53:12.348Z,58.89
2022-11-07T21:55:38.918Z,58.47
2022-11-07T21:58:05.381Z,58.47
2022-11-07T22:00:36.324Z,58.74
2022-11-07T22:03:04.360Z,58.70
2022-11-07T22:05:30.973Z,58.37
2022-11-07T22:07:58.016Z,58.59
2022-11-07T22:10:24.776Z,58.20
2022-11-07T22:12:52.416Z,58.54
2022-11-07T22:15:19.656Z,58.64
2022-11-07T22:17:46.259Z,58.21
2022-11-07T22:20:13.043Z,58.38
2022-11-07T22:22:39.670Z,58.50
2022-11-07T22:25:11.558Z,58.31
2022-11-07T22:27:38.205Z,58.38
2022-11-07T22:30:05.493Z,58.36
2022-11-07T22:32:32.172Z,58.38
2022-11-07T22:34:58.761Z,58.14
2022-11-07T22:37:25.459Z,58.20
2022-11-07T22:39:52.029Z,58.52
2022-11-07T22:42:23.612Z,58.17
2022-11-07T22:44:55.120Z,58.59
2022-11-07T22:47:21.731Z,58.32
2022-11-07T22:49:48.388Z,58.58
2022-11-07T22:52:15.433Z,58.26
2022-11-07T22:54:46.454Z,58.19
2022-11-07T22:57:17.562Z,58.60
2022-11-07T22:59:44.472Z,58.12
2022-11-07T23:02:11.215Z,58.21
2022-11-07T23:04:39.718Z,58.44
2022-11-07T23:07:06.328Z,58.40
2022-11-07T23:09:32.937Z,58.29
2022-11-07T23:12:00.567Z,58.55
2022-11-07T23:14:31.252Z,58.55
2022-11-07T23:16:57.890Z,58.64
2022-11-07T23:19:26.261Z,58.37
2022-11-07T23:21:54.780Z,58.46
2022-11-07T23:24:26.997Z,58.55
2022-11-07T23:26:53.611Z,58.51
2022-11-07T23:29:23.173Z,58.87
2022-11-07T23:31:51.165Z,58.86
2022-11-07T23:34:22.954Z,58.67
2022-11-07T23:36:50.988Z,58.60
2022-11-07T23:39:20.299Z,59.13
2022-11-07T23:41:47.311Z,59.01
2022-11-07T23:44:18.189Z,59.13
2022-11-07T23:47:04.135Z,59.19
2022-11-07T23:49:49.665Z,58.99
2022-11-07T23:52:17.591Z,59.25
2022-11-07T23:55:02.750Z,59.10
2022-11-07T23:57:29.611Z,59.09
